MMHO/HMO METAR and TAF weather

Enter ICAO airport designator
Station Type Date Time Source
MMHO METAR 2020/05/29 19:40 UTC NOAA

MMHO 291940Z 24003KT 10SM SKC 38/12 A2989 RMK HZY


Station Type Date Time Source
MMHO Decoded METAR 2020/05/29 19:40 UTC NOAA

Hermosillo, Son., Mexico (MMHO) 29-04N 110-57W
May 29, 2020 - 03:40 PM EDT / 2020.05.29 1940 UTC
Wind: from the WSW (240 degrees) at 3 MPH (3 KT):0
Visibility: 10 mile(s):0
Sky conditions: clear
Temperature: 100 F (38 C)
Heat index: 97.9 F (36.6 C):1
Dew Point: 53 F (12 C)
Relative Humidity: 21%
Pressure (altimeter): 29.89 in. Hg (1012 hPa)
ob: MMHO 291940Z 24003KT 10SM SKC 38/12 A2989 RMK HZY
cycle: 19

Station Type Date Time Source
MMHO TAF 2020/05/29 18:24 UTC NOAA

TAF MMHO 291621Z 2918/3018 14005KT P6SM SKC
BECMG 2920/2921 23015KT
FM300200 26005KT P6SM SCT100
BECMG 3005/3006 00000KT SKC
FM301800 23005KT P6SM SCT250

Example: see airport list